sensor_id;sensor_type;location;lat;lon;timestamp;temperature;humidity
20335;DHT22;10325;51.468;5.804;2023-02-15T00:01:59;18.00;57.60
20335;DHT22;10325;51.468;5.804;2023-02-15T00:04:26;17.90;58.20
20335;DHT22;10325;51.468;5.804;2023-02-15T00:07:19;17.90;57.70
20335;DHT22;10325;51.468;5.804;2023-02-15T00:09:48;17.90;57.70
20335;DHT22;10325;51.468;5.804;2023-02-15T00:12:18;17.90;57.80
20335;DHT22;10325;51.468;5.804;2023-02-15T00:14:48;17.80;57.80
20335;DHT22;10325;51.468;5.804;2023-02-15T00:17:16;17.80;57.90
20335;DHT22;10325;51.468;5.804;2023-02-15T00:19:44;17.80;57.90
20335;DHT22;10325;51.468;5.804;2023-02-15T00:22:15;17.80;57.90
20335;DHT22;10325;51.468;5.804;2023-02-15T00:24:45;17.80;58.00
20335;DHT22;10325;51.468;5.804;2023-02-15T00:27:16;17.70;58.00
20335;DHT22;10325;51.468;5.804;2023-02-15T00:29:44;17.70;58.10
20335;DHT22;10325;51.468;5.804;2023-02-15T00:32:14;17.70;58.10
20335;DHT22;10325;51.468;5.804;2023-02-15T00:34:44;17.70;58.20
20335;DHT22;10325;51.468;5.804;2023-02-15T00:37:17;17.60;58.20
20335;DHT22;10325;51.468;5.804;2023-02-15T00:39:45;17.60;58.90
20335;DHT22;10325;51.468;5.804;2023-02-15T00:42:20;17.60;58.30
20335;DHT22;10325;51.468;5.804;2023-02-15T00:44:48;17.60;58.30
20335;DHT22;10325;51.468;5.804;2023-02-15T00:47:28;17.60;58.40
20335;DHT22;10325;51.468;5.804;2023-02-15T00:50:00;17.50;58.50
20335;DHT22;10325;51.468;5.804;2023-02-15T00:52:28;17.50;58.50
20335;DHT22;10325;51.468;5.804;2023-02-15T00:54:56;17.50;58.50
20335;DHT22;10325;51.468;5.804;2023-02-15T00:57:23;17.50;58.60
20335;DHT22;10325;51.468;5.804;2023-02-15T00:59:53;17.50;58.60
20335;DHT22;10325;51.468;5.804;2023-02-15T01:02:25;17.50;58.70
20335;DHT22;10325;51.468;5.804;2023-02-15T01:04:57;17.40;58.60
20335;DHT22;10325;51.468;5.804;2023-02-15T01:07:27;17.40;58.70
20335;DHT22;10325;51.468;5.804;2023-02-15T01:09:54;17.40;58.70
20335;DHT22;10325;51.468;5.804;2023-02-15T01:12:21;17.40;58.70
20335;DHT22;10325;51.468;5.804;2023-02-15T01:14:51;17.40;58.70
20335;DHT22;10325;51.468;5.804;2023-02-15T01:17:19;17.40;58.80
20335;DHT22;10325;51.468;5.804;2023-02-15T01:19:54;17.40;58.80
20335;DHT22;10325;51.468;5.804;2023-02-15T01:22:24;17.30;58.80
20335;DHT22;10325;51.468;5.804;2023-02-15T01:24:55;17.40;58.90
20335;DHT22;10325;51.468;5.804;2023-02-15T01:27:25;17.30;58.80
20335;DHT22;10325;51.468;5.804;2023-02-15T01:30:02;17.30;58.90
20335;DHT22;10325;51.468;5.804;2023-02-15T01:32:36;17.30;58.90
20335;DHT22;10325;51.468;5.804;2023-02-15T01:35:07;17.30;59.00
20335;DHT22;10325;51.468;5.804;2023-02-15T01:37:36;17.30;59.00
20335;DHT22;10325;51.468;5.804;2023-02-15T01:40:12;17.30;59.00
20335;DHT22;10325;51.468;5.804;2023-02-15T01:42:43;17.20;59.00
20335;DHT22;10325;51.468;5.804;2023-02-15T01:45:26;17.20;59.00
20335;DHT22;10325;51.468;5.804;2023-02-15T01:48:15;17.20;59.00
20335;DHT22;10325;51.468;5.804;2023-02-15T01:50:54;17.20;59.10
20335;DHT22;10325;51.468;5.804;2023-02-15T01:53:41;17.20;59.20
20335;DHT22;10325;51.468;5.804;2023-02-15T01:56:15;17.20;59.70
20335;DHT22;10325;51.468;5.804;2023-02-15T01:58:45;17.20;59.20
20335;DHT22;10325;51.468;5.804;2023-02-15T02:01:19;17.10;59.10
20335;DHT22;10325;51.468;5.804;2023-02-15T02:04:17;17.20;59.20
20335;DHT22;10325;51.468;5.804;2023-02-15T02:06:48;17.10;59.20
20335;DHT22;10325;51.468;5.804;2023-02-15T02:09:20;17.10;59.20
20335;DHT22;10325;51.468;5.804;2023-02-15T02:11:52;17.10;59.20
20335;DHT22;10325;51.468;5.804;2023-02-15T02:14:36;17.10;59.20
20335;DHT22;10325;51.468;5.804;2023-02-15T02:20:30;17.10;59.20
20335;DHT22;10325;51.468;5.804;2023-02-15T02:35:18;17.00;59.30
20335;DHT22;10325;51.468;5.804;2023-02-15T02:40:52;17.00;59.40
20335;DHT22;10325;51.468;5.804;2023-02-15T02:46:24;17.00;59.40
20335;DHT22;10325;51.468;5.804;2023-02-15T02:48:56;17.00;59.40
20335;DHT22;10325;51.468;5.804;2023-02-15T02:51:26;17.00;59.40
20335;DHT22;10325;51.468;5.804;2023-02-15T02:54:04;17.00;59.40
20335;DHT22;10325;51.468;5.804;2023-02-15T02:56:46;17.00;59.40
20335;DHT22;10325;51.468;5.804;2023-02-15T02:59:23;17.00;59.50
20335;DHT22;10325;51.468;5.804;2023-02-15T03:02:17;16.90;59.40
20335;DHT22;10325;51.468;5.804;2023-02-15T03:04:53;16.90;59.40
20335;DHT22;10325;51.468;5.804;2023-02-15T03:07:35;16.90;59.40
20335;DHT22;10325;51.468;5.804;2023-02-15T03:10:06;16.90;59.50
20335;DHT22;10325;51.468;5.804;2023-02-15T03:12:39;16.90;59.40
20335;DHT22;10325;51.468;5.804;2023-02-15T03:15:29;16.90;59.40
20335;DHT22;10325;51.468;5.804;2023-02-15T03:18:23;16.90;59.40
20335;DHT22;10325;51.468;5.804;2023-02-15T03:21:01;16.90;59.40
20335;DHT22;10325;51.468;5.804;2023-02-15T03:23:33;16.80;59.40
20335;DHT22;10325;51.468;5.804;2023-02-15T03:26:07;16.90;59.50
20335;DHT22;10325;51.468;5.804;2023-02-15T03:28:46;16.80;59.30
20335;DHT22;10325;51.468;5.804;2023-02-15T03:31:16;16.90;59.40
20335;DHT22;10325;51.468;5.804;2023-02-15T03:33:57;16.80;59.40
20335;DHT22;10325;51.468;5.804;2023-02-15T03:36:52;16.80;59.40
20335;DHT22;10325;51.468;5.804;2023-02-15T03:40:41;16.80;59.30
20335;DHT22;10325;51.468;5.804;2023-02-15T03:49:12;16.80;59.50
20335;DHT22;10325;51.468;5.804;2023-02-15T03:51:46;16.80;59.50
20335;DHT22;10325;51.468;5.804;2023-02-15T03:54:26;16.80;59.50
20335;DHT22;10325;51.468;5.804;2023-02-15T03:57:26;16.80;59.50
20335;DHT22;10325;51.468;5.804;2023-02-15T04:00:27;16.80;59.40
20335;DHT22;10325;51.468;5.804;2023-02-15T04:03:54;16.80;59.50
20335;DHT22;10325;51.468;5.804;2023-02-15T04:06:24;16.80;59.40
20335;DHT22;10325;51.468;5.804;2023-02-15T04:08:56;16.70;59.40
20335;DHT22;10325;51.468;5.804;2023-02-15T04:11:45;16.70;59.40
20335;DHT22;10325;51.468;5.804;2023-02-15T04:14:15;16.70;59.50
20335;DHT22;10325;51.468;5.804;2023-02-15T04:17:06;16.70;59.40
20335;DHT22;10325;51.468;5.804;2023-02-15T04:19:36;16.70;59.40
20335;DHT22;10325;51.468;5.804;2023-02-15T04:22:27;16.70;59.40
20335;DHT22;10325;51.468;5.804;2023-02-15T04:25:16;16.70;59.50
20335;DHT22;10325;51.468;5.804;2023-02-15T04:27:53;16.70;59.50
20335;DHT22;10325;51.468;5.804;2023-02-15T04:30:25;16.70;59.50
20335;DHT22;10325;51.468;5.804;2023-02-15T04:32:55;16.70;59.50
20335;DHT22;10325;51.468;5.804;2023-02-15T04:35:28;16.70;59.50
20335;DHT22;10325;51.468;5.804;2023-02-15T04:37:58;16.60;59.40
20335;DHT22;10325;51.468;5.804;2023-02-15T04:40:30;16.60;59.40
20335;DHT22;10325;51.468;5.804;2023-02-15T04:43:00;16.60;59.40
20335;DHT22;10325;51.468;5.804;2023-02-15T04:45:29;16.70;59.40
20335;DHT22;10325;51.468;5.804;2023-02-15T04:48:01;16.60;59.40
20335;DHT22;10325;51.468;5.804;2023-02-15T04:50:31;16.70;59.40
20335;DHT22;10325;51.468;5.804;2023-02-15T04:53:01;16.60;59.40
20335;DHT22;10325;51.468;5.804;2023-02-15T04:55:33;16.60;59.40
20335;DHT22;10325;51.468;5.804;2023-02-15T04:58:01;16.60;59.40
20335;DHT22;10325;51.468;5.804;2023-02-15T05:00:33;16.60;59.40
20335;DHT22;10325;51.468;5.804;2023-02-15T05:03:04;16.60;59.40
20335;DHT22;10325;51.468;5.804;2023-02-15T05:05:32;16.60;59.40
20335;DHT22;10325;51.468;5.804;2023-02-15T05:08:04;16.60;59.40
20335;DHT22;10325;51.468;5.804;2023-02-15T05:10:34;16.60;59.40
20335;DHT22;10325;51.468;5.804;2023-02-15T05:13:06;16.60;59.40
20335;DHT22;10325;51.468;5.804;2023-02-15T05:15:34;16.60;59.40
20335;DHT22;10325;51.468;5.804;2023-02-15T05:18:03;16.50;59.30
20335;DHT22;10325;51.468;5.804;2023-02-15T05:20:36;16.60;59.40
20335;DHT22;10325;51.468;5.804;2023-02-15T05:23:12;16.50;59.40
20335;DHT22;10325;51.468;5.804;2023-02-15T05:25:51;16.50;59.40
20335;DHT22;10325;51.468;5.804;2023-02-15T05:28:39;16.50;59.40
20335;DHT22;10325;51.468;5.804;2023-02-15T05:33:45;16.50;59.40
20335;DHT22;10325;51.468;5.804;2023-02-15T05:36:15;16.50;59.40
20335;DHT22;10325;51.468;5.804;2023-02-15T05:38:45;16.50;59.40
20335;DHT22;10325;51.468;5.804;2023-02-15T05:41:13;16.40;59.40
20335;DHT22;10325;51.468;5.804;2023-02-15T05:43:44;16.50;59.50
20335;DHT22;10325;51.468;5.804;2023-02-15T05:46:14;16.50;59.40
20335;DHT22;10325;51.468;5.804;2023-02-15T05:48:43;16.40;60.00
20335;DHT22;10325;51.468;5.804;2023-02-15T05:51:13;16.50;59.40
20335;DHT22;10325;51.468;5.804;2023-02-15T05:53:52;16.40;59.40
20335;DHT22;10325;51.468;5.804;2023-02-15T05:56:23;16.40;59.30
20335;DHT22;10325;51.468;5.804;2023-02-15T05:58:52;16.40;59.40
20335;DHT22;10325;51.468;5.804;2023-02-15T06:01:21;16.40;59.30
20335;DHT22;10325;51.468;5.804;2023-02-15T06:03:54;16.40;59.20
20335;DHT22;10325;51.468;5.804;2023-02-15T06:06:24;16.40;59.20
20335;DHT22;10325;51.468;5.804;2023-02-15T06:08:57;16.40;59.20
20335;DHT22;10325;51.468;5.804;2023-02-15T06:11:26;16.40;59.20
20335;DHT22;10325;51.468;5.804;2023-02-15T06:13:57;16.40;59.10
20335;DHT22;10325;51.468;5.804;2023-02-15T06:16:29;16.40;59.10
20335;DHT22;10325;51.468;5.804;2023-02-15T06:19:12;16.40;59.00
20335;DHT22;10325;51.468;5.804;2023-02-15T06:21:44;16.40;59.00
20335;DHT22;10325;51.468;5.804;2023-02-15T06:24:16;16.40;58.90
20335;DHT22;10325;51.468;5.804;2023-02-15T06:26:44;16.40;58.80
20335;DHT22;10325;51.468;5.804;2023-02-15T06:29:11;16.40;58.80
20335;DHT22;10325;51.468;5.804;2023-02-15T06:31:40;16.40;58.70
20335;DHT22;10325;51.468;5.804;2023-02-15T06:34:09;16.40;58.70
20335;DHT22;10325;51.468;5.804;2023-02-15T06:36:39;16.40;58.70
20335;DHT22;10325;51.468;5.804;2023-02-15T06:39:10;16.30;58.60
20335;DHT22;10325;51.468;5.804;2023-02-15T06:41:41;16.30;58.60
20335;DHT22;10325;51.468;5.804;2023-02-15T06:44:12;16.30;58.50
20335;DHT22;10325;51.468;5.804;2023-02-15T06:46:47;16.30;58.30
20335;DHT22;10325;51.468;5.804;2023-02-15T06:49:19;16.30;58.20
20335;DHT22;10325;51.468;5.804;2023-02-15T06:51:47;16.30;58.10
20335;DHT22;10325;51.468;5.804;2023-02-15T06:54:21;16.30;58.10
20335;DHT22;10325;51.468;5.804;2023-02-15T06:56:50;16.30;57.80
20335;DHT22;10325;51.468;5.804;2023-02-15T06:59:19;16.30;57.90
20335;DHT22;10325;51.468;5.804;2023-02-15T07:01:48;16.30;57.80
20335;DHT22;10325;51.468;5.804;2023-02-15T07:04:18;16.30;57.70
20335;DHT22;10325;51.468;5.804;2023-02-15T07:06:46;16.30;57.70
20335;DHT22;10325;51.468;5.804;2023-02-15T07:09:19;16.30;57.80
20335;DHT22;10325;51.468;5.804;2023-02-15T07:11:50;16.20;57.70
20335;DHT22;10325;51.468;5.804;2023-02-15T07:14:40;16.20;57.70
20335;DHT22;10325;51.468;5.804;2023-02-15T07:17:10;16.30;57.60
20335;DHT22;10325;51.468;5.804;2023-02-15T07:20:06;16.20;57.60
20335;DHT22;10325;51.468;5.804;2023-02-15T07:22:36;16.20;57.40
20335;DHT22;10325;51.468;5.804;2023-02-15T07:25:08;16.20;57.30
20335;DHT22;10325;51.468;5.804;2023-02-15T07:27:39;16.20;57.20
20335;DHT22;10325;51.468;5.804;2023-02-15T07:30:12;16.20;57.20
20335;DHT22;10325;51.468;5.804;2023-02-15T07:32:48;16.20;57.20
20335;DHT22;10325;51.468;5.804;2023-02-15T07:35:46;16.20;57.00
20335;DHT22;10325;51.468;5.804;2023-02-15T07:38:18;16.20;57.00
20335;DHT22;10325;51.468;5.804;2023-02-15T07:40:48;16.20;57.00
20335;DHT22;10325;51.468;5.804;2023-02-15T07:43:20;16.20;56.90
20335;DHT22;10325;51.468;5.804;2023-02-15T07:45:47;16.20;56.90
20335;DHT22;10325;51.468;5.804;2023-02-15T07:48:16;16.20;57.00
20335;DHT22;10325;51.468;5.804;2023-02-15T07:50:45;16.20;56.90
20335;DHT22;10325;51.468;5.804;2023-02-15T07:53:15;16.20;56.70
20335;DHT22;10325;51.468;5.804;2023-02-15T07:55:46;16.20;56.70
20335;DHT22;10325;51.468;5.804;2023-02-15T07:58:16;16.20;56.70
20335;DHT22;10325;51.468;5.804;2023-02-15T08:00:49;16.20;56.60
20335;DHT22;10325;51.468;5.804;2023-02-15T08:03:27;16.20;56.60
20335;DHT22;10325;51.468;5.804;2023-02-15T08:05:59;16.20;56.60
20335;DHT22;10325;51.468;5.804;2023-02-15T08:08:34;16.20;56.40
20335;DHT22;10325;51.468;5.804;2023-02-15T08:11:23;16.20;57.30
20335;DHT22;10325;51.468;5.804;2023-02-15T08:14:20;16.50;59.00
20335;DHT22;10325;51.468;5.804;2023-02-15T08:16:55;16.90;58.70
20335;DHT22;10325;51.468;5.804;2023-02-15T08:19:32;17.30;58.30
20335;DHT22;10325;51.468;5.804;2023-02-15T08:22:05;17.70;57.40
20335;DHT22;10325;51.468;5.804;2023-02-15T08:24:37;18.00;56.60
20335;DHT22;10325;51.468;5.804;2023-02-15T08:27:11;18.40;55.70
20335;DHT22;10325;51.468;5.804;2023-02-15T08:29:46;18.60;55.50
20335;DHT22;10325;51.468;5.804;2023-02-15T08:32:18;18.90;55.10
20335;DHT22;10325;51.468;5.804;2023-02-15T08:34:51;19.40;53.20
20335;DHT22;10325;51.468;5.804;2023-02-15T08:37:19;19.60;53.40
20335;DHT22;10325;51.468;5.804;2023-02-15T08:39:49;19.90;51.80
20335;DHT22;10325;51.468;5.804;2023-02-15T08:42:20;20.20;51.30
20335;DHT22;10325;51.468;5.804;2023-02-15T08:44:51;20.40;50.80
20335;DHT22;10325;51.468;5.804;2023-02-15T08:47:21;20.70;50.30
20335;DHT22;10325;51.468;5.804;2023-02-15T08:49:49;20.90;50.10
20335;DHT22;10325;51.468;5.804;2023-02-15T08:52:18;21.00;49.90
20335;DHT22;10325;51.468;5.804;2023-02-15T08:54:50;21.00;50.20
20335;DHT22;10325;51.468;5.804;2023-02-15T08:57:18;21.10;50.00
20335;DHT22;10325;51.468;5.804;2023-02-15T08:59:49;21.30;49.50
20335;DHT22;10325;51.468;5.804;2023-02-15T09:02:21;21.40;49.30
20335;DHT22;10325;51.468;5.804;2023-02-15T09:04:53;21.60;49.20
20335;DHT22;10325;51.468;5.804;2023-02-15T09:07:28;21.70;48.70
20335;DHT22;10325;51.468;5.804;2023-02-15T09:09:56;21.80;48.60
20335;DHT22;10325;51.468;5.804;2023-02-15T09:12:25;21.60;48.20
20335;DHT22;10325;51.468;5.804;2023-02-15T09:14:55;21.40;48.30
20335;DHT22;10325;51.468;5.804;2023-02-15T09:17:26;21.20;48.60
20335;DHT22;10325;51.468;5.804;2023-02-15T09:19:57;21.10;49.30
20335;DHT22;10325;51.468;5.804;2023-02-15T09:22:25;20.90;49.50
20335;DHT22;10325;51.468;5.804;2023-02-15T09:24:55;20.80;49.40
20335;DHT22;10325;51.468;5.804;2023-02-15T09:27:23;20.70;49.40
20335;DHT22;10325;51.468;5.804;2023-02-15T09:29:54;20.70;49.70
20335;DHT22;10325;51.468;5.804;2023-02-15T09:32:22;20.60;49.80
20335;DHT22;10325;51.468;5.804;2023-02-15T09:34:53;20.50;50.20
20335;DHT22;10325;51.468;5.804;2023-02-15T09:37:24;20.40;50.10
20335;DHT22;10325;51.468;5.804;2023-02-15T09:39:51;20.40;50.40
20335;DHT22;10325;51.468;5.804;2023-02-15T09:42:44;20.30;50.30
20335;DHT22;10325;51.468;5.804;2023-02-15T09:48:52;20.20;50.30
20335;DHT22;10325;51.468;5.804;2023-02-15T09:51:32;20.10;50.50
20335;DHT22;10325;51.468;5.804;2023-02-15T10:06:19;20.00;51.70
20335;DHT22;10325;51.468;5.804;2023-02-15T10:12:37;19.90;51.80
20335;DHT22;10325;51.468;5.804;2023-02-15T10:27:19;19.80;51.70
20335;DHT22;10325;51.468;5.804;2023-02-15T10:30:09;19.80;51.70
20335;DHT22;10325;51.468;5.804;2023-02-15T10:33:01;19.80;51.80
20335;DHT22;10325;51.468;5.804;2023-02-15T10:50:30;19.70;50.50
20335;DHT22;10325;51.468;5.804;2023-02-15T11:08:20;19.20;50.40
20335;DHT22;10325;51.468;5.804;2023-02-15T11:11:25;19.10;50.80
20335;DHT22;10325;51.468;5.804;2023-02-15T11:14:02;19.10;50.60
20335;DHT22;10325;51.468;5.804;2023-02-15T11:16:34;19.00;50.60
20335;DHT22;10325;51.468;5.804;2023-02-15T11:19:20;19.00;50.80
20335;DHT22;10325;51.468;5.804;2023-02-15T11:21:54;19.00;50.80
20335;DHT22;10325;51.468;5.804;2023-02-15T11:24:27;18.90;50.90
20335;DHT22;10325;51.468;5.804;2023-02-15T11:26:59;18.90;51.20
20335;DHT22;10325;51.468;5.804;2023-02-15T11:29:37;18.90;51.20
20335;DHT22;10325;51.468;5.804;2023-02-15T11:32:30;18.90;51.40
20335;DHT22;10325;51.468;5.804;2023-02-15T11:35:11;18.90;51.40
20335;DHT22;10325;51.468;5.804;2023-02-15T11:37:54;18.90;51.40
20335;DHT22;10325;51.468;5.804;2023-02-15T11:40:29;18.80;51.60
20335;DHT22;10325;51.468;5.804;2023-02-15T11:45:50;18.80;52.30
20335;DHT22;10325;51.468;5.804;2023-02-15T11:48:21;18.80;51.80
20335;DHT22;10325;51.468;5.804;2023-02-15T11:50:52;18.80;52.00
20335;DHT22;10325;51.468;5.804;2023-02-15T11:53:22;18.70;52.00
20335;DHT22;10325;51.468;5.804;2023-02-15T11:56:17;18.80;52.40
20335;DHT22;10325;51.468;5.804;2023-02-15T11:59:02;18.80;52.50
20335;DHT22;10325;51.468;5.804;2023-02-15T12:01:40;18.80;52.90
20335;DHT22;10325;51.468;5.804;2023-02-15T12:04:29;18.90;54.00
20335;DHT22;10325;51.468;5.804;2023-02-15T12:07:32;19.40;54.10
20335;DHT22;10325;51.468;5.804;2023-02-15T12:11:07;19.80;53.40
20335;DHT22;10325;51.468;5.804;2023-02-15T12:13:21;20.20;52.10
20335;DHT22;10325;51.468;5.804;2023-02-15T12:15:56;20.50;52.10
20335;DHT22;10325;51.468;5.804;2023-02-15T12:18:57;20.60;52.20
20335;DHT22;10325;51.468;5.804;2023-02-15T12:21:38;20.80;52.20
20335;DHT22;10325;51.468;5.804;2023-02-15T12:24:27;20.90;52.10
20335;DHT22;10325;51.468;5.804;2023-02-15T12:27:47;21.00;51.80
20335;DHT22;10325;51.468;5.804;2023-02-15T12:30:06;21.00;51.40
20335;DHT22;10325;51.468;5.804;2023-02-15T12:33:24;20.90;51.60
20335;DHT22;10325;51.468;5.804;2023-02-15T12:36:00;21.00;51.50
20335;DHT22;10325;51.468;5.804;2023-02-15T12:38:33;20.90;51.70
20335;DHT22;10325;51.468;5.804;2023-02-15T12:41:26;20.90;51.90
20335;DHT22;10325;51.468;5.804;2023-02-15T12:44:15;20.80;51.70
20335;DHT22;10325;51.468;5.804;2023-02-15T12:47:19;20.80;52.60
20335;DHT22;10325;51.468;5.804;2023-02-15T12:50:22;20.90;52.40
20335;DHT22;10325;51.468;5.804;2023-02-15T12:53:23;21.10;52.70
20335;DHT22;10325;51.468;5.804;2023-02-15T12:56:05;21.20;52.60
20335;DHT22;10325;51.468;5.804;2023-02-15T12:59:04;21.30;52.40
20335;DHT22;10325;51.468;5.804;2023-02-15T13:01:36;21.50;52.10
20335;DHT22;10325;51.468;5.804;2023-02-15T13:04:13;21.60;51.40
20335;DHT22;10325;51.468;5.804;2023-02-15T13:06:50;21.60;51.30
20335;DHT22;10325;51.468;5.804;2023-02-15T13:09:39;21.50;51.30
20335;DHT22;10325;51.468;5.804;2023-02-15T13:14:48;21.40;51.30
20335;DHT22;10325;51.468;5.804;2023-02-15T13:17:30;21.30;51.40
20335;DHT22;10325;51.468;5.804;2023-02-15T13:20:16;21.30;51.70
20335;DHT22;10325;51.468;5.804;2023-02-15T13:23:05;21.30;52.20
20335;DHT22;10325;51.468;5.804;2023-02-15T13:25:46;21.30;52.10
20335;DHT22;10325;51.468;5.804;2023-02-15T13:28:19;21.20;52.20
20335;DHT22;10325;51.468;5.804;2023-02-15T13:30:50;21.20;52.20
20335;DHT22;10325;51.468;5.804;2023-02-15T13:33:33;21.20;52.40
20335;DHT22;10325;51.468;5.804;2023-02-15T13:39:40;21.10;52.90
20335;DHT22;10325;51.468;5.804;2023-02-15T13:42:49;21.00;52.00
20335;DHT22;10325;51.468;5.804;2023-02-15T13:48:41;20.90;52.20
20335;DHT22;10325;51.468;5.804;2023-02-15T14:03:12;20.60;52.60
20335;DHT22;10325;51.468;5.804;2023-02-15T14:06:20;20.50;52.70
20335;DHT22;10325;51.468;5.804;2023-02-15T14:09:15;20.50;52.80
20335;DHT22;10325;51.468;5.804;2023-02-15T14:12:57;20.60;53.30
20335;DHT22;10325;51.468;5.804;2023-02-15T14:15:27;20.70;53.70
20335;DHT22;10325;51.468;5.804;2023-02-15T14:18:27;21.00;53.70
20335;DHT22;10325;51.468;5.804;2023-02-15T14:24:17;21.40;53.30
20335;DHT22;10325;51.468;5.804;2023-02-15T14:29:57;21.60;52.70
20335;DHT22;10325;51.468;5.804;2023-02-15T14:32:46;21.60;52.70
20335;DHT22;10325;51.468;5.804;2023-02-15T14:35:27;21.50;52.50
20335;DHT22;10325;51.468;5.804;2023-02-15T14:41:14;21.40;52.90
20335;DHT22;10325;51.468;5.804;2023-02-15T14:49:23;21.40;52.90
20335;DHT22;10325;51.468;5.804;2023-02-15T14:51:59;21.40;53.00
20335;DHT22;10325;51.468;5.804;2023-02-15T14:59:56;21.40;53.10
20335;DHT22;10325;51.468;5.804;2023-02-15T15:02:52;21.40;53.10
20335;DHT22;10325;51.468;5.804;2023-02-15T15:07:57;21.30;53.30
20335;DHT22;10325;51.468;5.804;2023-02-15T15:10:45;21.30;53.30
20335;DHT22;10325;51.468;5.804;2023-02-15T15:13:36;21.30;53.50
20335;DHT22;10325;51.468;5.804;2023-02-15T15:19:56;21.30;53.60
20335;DHT22;10325;51.468;5.804;2023-02-15T15:22:23;21.30;53.60
20335;DHT22;10325;51.468;5.804;2023-02-15T15:25:11;21.30;53.80
20335;DHT22;10325;51.468;5.804;2023-02-15T15:27:52;21.30;53.80
20335;DHT22;10325;51.468;5.804;2023-02-15T15:30:53;21.30;53.90
20335;DHT22;10325;51.468;5.804;2023-02-15T15:49:20;21.20;54.20
20335;DHT22;10325;51.468;5.804;2023-02-15T15:51:52;21.10;54.20
20335;DHT22;10325;51.468;5.804;2023-02-15T15:54:24;21.20;54.40
20335;DHT22;10325;51.468;5.804;2023-02-15T15:57:02;21.20;54.20
20335;DHT22;10325;51.468;5.804;2023-02-15T15:59:34;21.10;54.40
20335;DHT22;10325;51.468;5.804;2023-02-15T16:02:15;21.10;54.30
20335;DHT22;10325;51.468;5.804;2023-02-15T16:04:46;21.20;54.30
20335;DHT22;10325;51.468;5.804;2023-02-15T16:07:23;21.10;54.30
20335;DHT22;10325;51.468;5.804;2023-02-15T16:10:02;21.20;54.20
20335;DHT22;10325;51.468;5.804;2023-02-15T16:12:39;21.20;54.30
20335;DHT22;10325;51.468;5.804;2023-02-15T16:15:24;21.20;54.40
20335;DHT22;10325;51.468;5.804;2023-02-15T16:18:02;21.20;54.40
20335;DHT22;10325;51.468;5.804;2023-02-15T16:20:59;21.20;54.50
20335;DHT22;10325;51.468;5.804;2023-02-15T16:23:49;21.20;54.50
20335;DHT22;10325;51.468;5.804;2023-02-15T16:29:17;21.20;54.30
20335;DHT22;10325;51.468;5.804;2023-02-15T16:34:35;21.10;54.60
20335;DHT22;10325;51.468;5.804;2023-02-15T16:37:19;21.10;54.70
20335;DHT22;10325;51.468;5.804;2023-02-15T16:39:54;21.10;55.00
20335;DHT22;10325;51.468;5.804;2023-02-15T16:42:44;21.10;54.60
20335;DHT22;10325;51.468;5.804;2023-02-15T16:45:19;21.10;54.90
20335;DHT22;10325;51.468;5.804;2023-02-15T16:48:01;21.00;54.70
20335;DHT22;10325;51.468;5.804;2023-02-15T16:50:54;21.10;54.50
20335;DHT22;10325;51.468;5.804;2023-02-15T16:53:35;21.10;53.60
20335;DHT22;10325;51.468;5.804;2023-02-15T16:56:09;21.00;53.30
20335;DHT22;10325;51.468;5.804;2023-02-15T16:58:46;20.90;53.00
20335;DHT22;10325;51.468;5.804;2023-02-15T17:01:24;20.90;53.10
20335;DHT22;10325;51.468;5.804;2023-02-15T17:04:28;20.80;53.10
20335;DHT22;10325;51.468;5.804;2023-02-15T17:07:24;20.70;53.00
20335;DHT22;10325;51.468;5.804;2023-02-15T17:09:56;20.60;53.10
20335;DHT22;10325;51.468;5.804;2023-02-15T17:12:46;20.50;53.00
20335;DHT22;10325;51.468;5.804;2023-02-15T17:15:43;20.50;53.20
20335;DHT22;10325;51.468;5.804;2023-02-15T17:18:22;20.40;53.00
20335;DHT22;10325;51.468;5.804;2023-02-15T17:20:53;20.40;53.40
20335;DHT22;10325;51.468;5.804;2023-02-15T17:23:46;20.30;53.20
20335;DHT22;10325;51.468;5.804;2023-02-15T17:26:24;20.30;53.60
20335;DHT22;10325;51.468;5.804;2023-02-15T17:29:44;20.20;53.60
20335;DHT22;10325;51.468;5.804;2023-02-15T17:31:57;20.20;53.70
20335;DHT22;10325;51.468;5.804;2023-02-15T17:35:08;20.10;53.80
20335;DHT22;10325;51.468;5.804;2023-02-15T17:37:46;20.10;53.90
20335;DHT22;10325;51.468;5.804;2023-02-15T17:40:26;20.00;54.20
20335;DHT22;10325;51.468;5.804;2023-02-15T17:42:57;20.00;54.10
20335;DHT22;10325;51.468;5.804;2023-02-15T17:45:33;20.00;54.10
20335;DHT22;10325;51.468;5.804;2023-02-15T17:48:28;19.90;54.20
20335;DHT22;10325;51.468;5.804;2023-02-15T17:51:05;19.90;54.30
20335;DHT22;10325;51.468;5.804;2023-02-15T17:53:40;19.80;54.30
20335;DHT22;10325;51.468;5.804;2023-02-15T17:56:08;19.80;54.30
20335;DHT22;10325;51.468;5.804;2023-02-15T17:58:47;19.80;54.60
20335;DHT22;10325;51.468;5.804;2023-02-15T18:01:17;19.70;54.50
20335;DHT22;10325;51.468;5.804;2023-02-15T18:04:13;19.70;54.80
20335;DHT22;10325;51.468;5.804;2023-02-15T18:07:07;19.60;54.90
20335;DHT22;10325;51.468;5.804;2023-02-15T18:10:18;19.60;54.90
20335;DHT22;10325;51.468;5.804;2023-02-15T18:13:07;19.60;55.10
20335;DHT22;10325;51.468;5.804;2023-02-15T18:15:36;19.50;55.10
20335;DHT22;10325;51.468;5.804;2023-02-15T18:18:08;19.50;55.10
20335;DHT22;10325;51.468;5.804;2023-02-15T18:20:41;19.50;55.10
20335;DHT22;10325;51.468;5.804;2023-02-15T18:23:13;19.50;55.10
20335;DHT22;10325;51.468;5.804;2023-02-15T18:25:41;19.40;55.10
20335;DHT22;10325;51.468;5.804;2023-02-15T18:28:10;19.40;55.10
20335;DHT22;10325;51.468;5.804;2023-02-15T18:30:41;19.40;55.20
20335;DHT22;10325;51.468;5.804;2023-02-15T18:33:31;19.30;55.00
20335;DHT22;10325;51.468;5.804;2023-02-15T18:36:07;19.30;55.00
20335;DHT22;10325;51.468;5.804;2023-02-15T18:38:43;19.30;55.50
20335;DHT22;10325;51.468;5.804;2023-02-15T18:41:18;19.20;55.60
20335;DHT22;10325;51.468;5.804;2023-02-15T18:43:49;19.20;55.70
20335;DHT22;10325;51.468;5.804;2023-02-15T18:46:29;19.20;55.80
20335;DHT22;10325;51.468;5.804;2023-02-15T18:49:00;19.20;55.50
20335;DHT22;10325;51.468;5.804;2023-02-15T18:51:30;19.20;55.70
20335;DHT22;10325;51.468;5.804;2023-02-15T18:54:01;19.10;55.50
20335;DHT22;10325;51.468;5.804;2023-02-15T18:56:33;19.10;55.70
20335;DHT22;10325;51.468;5.804;2023-02-15T18:59:04;19.10;55.50
20335;DHT22;10325;51.468;5.804;2023-02-15T19:01:35;19.10;55.70
20335;DHT22;10325;51.468;5.804;2023-02-15T19:04:09;19.00;55.50
20335;DHT22;10325;51.468;5.804;2023-02-15T19:06:46;19.00;55.50
20335;DHT22;10325;51.468;5.804;2023-02-15T19:09:16;19.00;55.70
20335;DHT22;10325;51.468;5.804;2023-02-15T19:11:51;19.00;55.60
20335;DHT22;10325;51.468;5.804;2023-02-15T19:14:31;19.00;55.70
20335;DHT22;10325;51.468;5.804;2023-02-15T19:17:01;19.00;55.80
20335;DHT22;10325;51.468;5.804;2023-02-15T19:19:31;18.90;55.70